createdAt,value
2018-02-27T00:04:12.342Z,97.10
2018-02-27T00:10:16.929Z,96.70
2018-02-27T00:16:21.893Z,97.40
2018-02-27T00:22:26.565Z,97.60
2018-02-27T00:28:31.235Z,96.80
2018-02-27T00:34:35.930Z,96.70
2018-02-27T00:40:40.677Z,97.20
2018-02-27T00:46:46.237Z,97.10
2018-02-27T00:52:51.575Z,97.10
2018-02-27T00:58:56.632Z,98.40
2018-02-27T01:05:01.555Z,98.30
2018-02-27T01:11:06.186Z,98.30
2018-02-27T01:17:11.045Z,97.40
2018-02-27T01:23:15.715Z,96.50
2018-02-27T01:29:20.356Z,96.80
2018-02-27T01:35:25.053Z,97.60
2018-02-27T01:41:30.480Z,97.20
2018-02-27T01:47:35.082Z,98.60
2018-02-27T01:53:39.823Z,98.40
2018-02-27T01:59:45.196Z,97.40
2018-02-27T02:05:51.310Z,97.80
2018-02-27T02:11:55.974Z,97.70
2018-02-27T02:18:01.227Z,96.70
2018-02-27T02:24:06.010Z,97.60
2018-02-27T02:30:10.635Z,97.70
2018-02-27T02:36:15.258Z,97.00
2018-02-27T02:42:23.410Z,97.50
2018-02-27T02:48:29.188Z,97.20
2018-02-27T02:54:34.135Z,97.10
2018-02-27T03:00:39.892Z,97.70
2018-02-27T03:06:44.660Z,97.70
2018-02-27T03:12:49.899Z,98.80
2018-02-27T03:18:55.048Z,97.70
2018-02-27T03:24:59.862Z,96.80
2018-02-27T03:31:05.091Z,96.70
2018-02-27T03:37:09.894Z,96.70
2018-02-27T03:43:14.642Z,97.10
2018-02-27T03:49:20.625Z,97.00
2018-02-27T03:55:27.316Z,97.60
2018-02-27T04:01:32.058Z,97.60
2018-02-27T04:07:37.115Z,98.00
2018-02-27T04:13:41.968Z,97.40
2018-02-27T04:19:46.922Z,97.10
2018-02-27T04:25:53.354Z,97.90
2018-02-27T04:31:58.785Z,97.60
2018-02-27T04:38:03.773Z,98.60
2018-02-27T04:44:08.563Z,98.30
2018-02-27T04:50:13.666Z,97.60
2018-02-27T04:56:19.821Z,97.50
2018-02-27T05:02:25.965Z,97.20
2018-02-27T05:08:31.572Z,97.70
2018-02-27T05:14:36.937Z,97.70
2018-02-27T05:20:42.375Z,97.50
2018-02-27T05:26:47.109Z,97.20
2018-02-27T05:32:53.094Z,97.20
2018-02-27T05:38:58.808Z,98.10
2018-02-27T05:45:03.975Z,97.70
2018-02-27T05:51:08.899Z,97.60
2018-02-27T05:57:14.949Z,96.60
2018-02-27T06:03:19.669Z,97.20
2018-02-27T06:09:26.717Z,97.80
2018-02-27T06:15:32.124Z,97.20
2018-02-27T06:21:36.888Z,95.90
2018-02-27T06:27:41.543Z,95.70
2018-02-27T06:33:46.173Z,95.90
2018-02-27T06:39:50.955Z,95.40
2018-02-27T06:45:56.708Z,95.60
2018-02-27T06:52:01.679Z,96.20
2018-02-27T06:58:06.367Z,95.30
2018-02-27T07:04:11.963Z,95.70
2018-02-27T07:10:17.228Z,95.70
2018-02-27T07:16:24.421Z,96.00
2018-02-27T07:22:30.131Z,95.30
2018-02-27T07:28:34.789Z,95.30
2018-02-27T07:34:40.264Z,94.00
2018-02-27T07:40:46.394Z,93.60
2018-02-27T07:46:52.721Z,94.50
2018-02-27T07:52:58.442Z,94.20
2018-02-27T07:59:03.128Z,94.10
2018-02-27T08:05:08.643Z,95.00
2018-02-27T08:11:13.419Z,95.00
2018-02-27T08:17:18.482Z,96.20
2018-02-27T08:23:23.194Z,95.40
2018-02-27T08:29:27.842Z,94.60
2018-02-27T08:35:33.242Z,92.90
2018-02-27T08:41:37.941Z,92.90
2018-02-27T08:47:43.392Z,91.30
2018-02-27T08:53:48.176Z,91.00
2018-02-27T08:59:53.467Z,89.60
2018-02-27T09:05:58.281Z,90.60
2018-02-27T09:12:03.756Z,89.60
2018-02-27T09:18:08.726Z,89.60
2018-02-27T09:24:13.779Z,89.30
2018-02-27T09:30:19.651Z,86.50
2018-02-27T09:36:25.317Z,86.40
2018-02-27T09:42:30.089Z,86.90
2018-02-27T09:48:36.696Z,89.30
2018-02-27T09:54:41.345Z,89.30
2018-02-27T10:00:46.072Z,87.40
2018-02-27T10:06:55.301Z,84.70
2018-02-27T10:12:59.914Z,84.60
2018-02-27T10:19:04.627Z,82.00
2018-02-27T10:25:09.204Z,81.20
2018-02-27T10:31:14.049Z,73.70
2018-02-27T10:37:18.951Z,71.40
2018-02-27T10:43:24.095Z,71.50
2018-02-27T10:49:29.138Z,65.90
2018-02-27T10:55:33.911Z,67.60
2018-02-27T11:01:38.493Z,65.50
2018-02-27T11:07:43.810Z,61.90
2018-02-27T11:13:48.869Z,63.60
2018-02-27T11:19:56.448Z,58.60
2018-02-27T11:26:01.381Z,61.10
2018-02-27T11:32:06.197Z,56.10
2018-02-27T11:38:10.851Z,52.90
2018-02-27T11:44:20.302Z,48.70
2018-02-27T11:50:26.940Z,47.10
2018-02-27T11:56:35.818Z,40.80
2018-02-27T12:02:43.429Z,40.50
2018-02-27T12:08:52.895Z,39.20
2018-02-27T12:15:00.996Z,39.40
2018-02-27T12:21:05.810Z,39.40
2018-02-27T12:33:50.774Z,40.40
2018-02-27T12:40:00.689Z,41.60
2018-02-27T12:46:20.082Z,36.60
2018-02-27T13:02:23.423Z,37.00
2018-02-27T13:08:35.988Z,36.90
2018-02-27T13:14:57.300Z,37.40
2018-02-27T13:21:02.304Z,35.50
2018-02-27T13:27:09.794Z,36.40
2018-02-27T13:33:14.943Z,41.50
2018-02-27T13:39:20.867Z,45.00
2018-02-27T13:45:25.956Z,48.10
2018-02-27T13:51:31.527Z,50.00
2018-02-27T13:57:36.444Z,52.10
2018-02-27T14:03:41.090Z,51.70
2018-02-27T14:09:47.674Z,54.00
2018-02-27T14:15:52.514Z,56.30
2018-02-27T14:22:00.572Z,53.90
2018-02-27T14:28:05.832Z,53.90
2018-02-27T14:34:11.250Z,55.60
2018-02-27T14:40:15.993Z,55.00
2018-02-27T14:46:21.003Z,54.50
2018-02-27T14:52:26.318Z,54.20
2018-02-27T14:58:31.141Z,58.60
2018-02-27T15:04:35.816Z,60.60
2018-02-27T15:10:40.535Z,67.80
2018-02-27T15:16:46.291Z,75.70
2018-02-27T15:22:51.582Z,75.70
2018-02-27T15:28:56.214Z,76.30
2018-02-27T15:35:01.357Z,76.30
2018-02-27T15:41:06.312Z,75.70
2018-02-27T15:47:11.000Z,73.60
2018-02-27T15:53:16.122Z,72.00
2018-02-27T15:59:24.094Z,72.20
2018-02-27T16:05:29.315Z,72.10
2018-02-27T16:11:36.386Z,66.30
2018-02-27T16:17:42.500Z,73.90
2018-02-27T16:23:50.832Z,74.20
2018-02-27T16:29:55.614Z,74.00
2018-02-27T16:36:00.353Z,78.10
2018-02-27T16:42:05.574Z,82.70
2018-02-27T16:48:10.293Z,84.30
2018-02-27T16:54:15.690Z,88.90
2018-02-27T17:00:21.268Z,88.90
2018-02-27T17:06:26.782Z,90.10
2018-02-27T17:12:31.507Z,90.00
2018-02-27T17:18:36.115Z,90.00
2018-02-27T17:24:40.834Z,90.10
2018-02-27T17:30:45.456Z,90.20
2018-02-27T17:36:51.718Z,90.00
2018-02-27T17:42:56.431Z,90.00
2018-02-27T17:49:01.609Z,90.20
2018-02-27T17:55:06.476Z,90.20
2018-02-27T18:01:11.183Z,90.30
2018-02-27T18:07:16.024Z,90.20
2018-02-27T18:13:21.029Z,90.40
2018-02-27T18:19:25.747Z,90.20
2018-02-27T18:25:31.176Z,90.60
2018-02-27T18:31:36.019Z,90.50
2018-02-27T18:37:40.833Z,90.70
2018-02-27T18:43:45.720Z,90.20
2018-02-27T18:49:50.867Z,89.80
2018-02-27T18:55:55.813Z,90.00
2018-02-27T19:02:00.465Z,89.40
2018-02-27T19:08:05.869Z,90.70
2018-02-27T19:14:11.225Z,90.30
2018-02-27T19:20:15.889Z,90.30
2018-02-27T19:26:21.576Z,88.70
2018-02-27T19:32:27.751Z,88.60
2018-02-27T19:38:33.475Z,88.00
2018-02-27T19:44:38.851Z,88.80
2018-02-27T19:50:43.454Z,88.80
2018-02-27T19:56:49.157Z,89.20
2018-02-27T20:02:56.741Z,89.20
2018-02-27T20:09:01.380Z,87.80
2018-02-27T20:15:06.150Z,83.20
2018-02-27T20:21:11.018Z,82.30
2018-02-27T20:27:15.673Z,80.20
2018-02-27T20:33:21.126Z,78.60
2018-02-27T20:39:26.183Z,78.90
2018-02-27T20:45:31.698Z,79.30
2018-02-27T20:51:36.358Z,79.30
2018-02-27T20:57:41.143Z,80.20
2018-02-27T21:03:46.033Z,79.50
2018-02-27T21:09:51.916Z,77.30
2018-02-27T21:15:56.975Z,75.70
2018-02-27T21:22:01.771Z,75.50
2018-02-27T21:28:06.867Z,77.30
2018-02-27T21:34:11.773Z,77.80
2018-02-27T21:40:16.935Z,79.70
2018-02-27T21:46:23.257Z,81.60
2018-02-27T21:52:28.354Z,81.20
2018-02-27T21:58:34.280Z,78.20
2018-02-27T22:04:39.092Z,78.20
2018-02-27T22:10:44.612Z,78.10
2018-02-27T22:16:50.661Z,78.70
2018-02-27T22:22:56.165Z,77.70
2018-02-27T22:29:01.844Z,76.60
2018-02-27T22:35:06.503Z,76.50
2018-02-27T22:41:11.326Z,74.80
2018-02-27T22:47:16.088Z,75.10
2018-02-27T22:53:22.358Z,76.30
2018-02-27T22:59:27.771Z,71.90
2018-02-27T23:05:32.454Z,71.90
2018-02-27T23:11:37.189Z,72.30
2018-02-27T23:17:43.040Z,70.30
2018-02-27T23:23:51.399Z,72.80
2018-02-27T23:29:59.469Z,72.50
2018-02-27T23:36:04.240Z,72.10
2018-02-27T23:42:08.912Z,72.50
2018-02-27T23:48:14.562Z,73.10
2018-02-27T23:54:20.850Z,74.60
